Time;durP1;ratioP1;P1;durP2;ratioP2;P2;SDS_P1;SDS_P2;PMS_P1;PMS_P2;Temp;Humidity;BMP_temperature;BMP_pressure;BME280_temperature;BME280_humidity;BME280_pressure;Samples;Min_cycle;Max_cycle;Signal;HPM_P1;HPM_P2
2022/01/26 00:00:57;;;;;;;;;;;;;;;;;;5115617;28;19912;-87
2022/01/26 00:06:37;;;;;;;;;;;;;;;;;;5115416;28;19943;-87
2022/01/26 00:09:03;;;;;;;;;;;;;;;;;;5097166;28;19916;-87
2022/01/26 00:11:31;;;;;;;;;;;;;;;;;;5080111;28;20006;-87
2022/01/26 00:13:58;;;;;;;;;;;;;;;;;;5097121;28;20397;-87
2022/01/26 00:16:27;;;;;;;;;;;;;;;;;;5076186;28;19927;-87
2022/01/26 00:18:56;;;;;;;;;;;;;;;;;;5094954;28;19916;-87
2022/01/26 00:27:30;;;;;;;;;;;;;;;;;;5056041;28;20446;-87
2022/01/26 00:31:59;;;;;;;;;;;;;;;;;;5078274;28;19917;-87
2022/01/26 00:41:15;;;;;;;;;;;;;;;;;;5093312;28;19916;-86
2022/01/26 00:44:00;;;;;;;;;;;;;;;;;;5093407;28;20011;-88
2022/01/26 00:46:25;;;;;;;;;;;;;;;;;;5076525;28;19927;-86
2022/01/26 00:49:09;;;;;;;;;;;;;;;;;;5093168;28;20274;-88
2022/01/26 00:51:34;;;;;;;;;;;;;;;;;;5076272;28;19989;-88
2022/01/26 00:54:06;;;;;;;;;;;;;;;;;;5076280;28;20365;-86
2022/01/26 00:56:32;;;;;;;;;;;;;;;;;;5077571;28;19923;-88
2022/01/26 00:58:57;;;;;;;;;;;;;;;;;;5093364;28;20002;-88
2022/01/26 01:01:23;;;;;;;;;;;;;;;;;;5093698;28;20420;-86
2022/01/26 01:03:48;;;;;;;;;;;;;;;;;;5076605;28;19916;-85
2022/01/26 01:06:22;;;;;;;;;;;;;;;;;;5076827;28;19963;-88
2022/01/26 01:08:47;;;;;;;;;;;;;;;;;;5077099;28;20002;-85
2022/01/26 01:11:14;;;;;;;;;;;;;;;;;;5078385;28;20412;-86
2022/01/26 01:13:41;;;;;;;;;;;;;;;;;;5077779;28;20012;-87
2022/01/26 01:16:08;;;;;;;;;;;;;;;;;;5093919;28;19920;-86
2022/01/26 01:35:33;;;;;;;;;;;;;;;;;;5092593;28;19926;-86
2022/01/26 01:38:07;;;;;;;;;;;;;;;;;;5075705;28;19916;-86
2022/01/26 01:40:57;;;;;;;;;;;;;;;;;;5093160;28;19919;-86
2022/01/26 01:43:23;;;;;;;;;;;;;;;;;;5092447;28;19916;-86
2022/01/26 01:46:07;;;;;;;;;;;;;;;;;;5075566;28;19959;-86
2022/01/26 01:48:33;;;;;;;;;;;;;;;;;;5092488;28;19916;-86
2022/01/26 01:51:16;;;;;;;;;;;;;;;;;;5092606;28;19916;-86
2022/01/26 01:53:43;;;;;;;;;;;;;;;;;;5092411;28;19916;-87
2022/01/26 01:56:44;;;;;;;;;;;;;;;;;;5075571;28;19923;-86
2022/01/26 01:59:10;;;;;;;;;;;;;;;;;;5075597;28;19915;-87
2022/01/26 02:01:35;;;;;;;;;;;;;;;;;;5075975;28;20006;-86
2022/01/26 02:04:05;;;;;;;;;;;;;;;;;;5092670;28;20388;-86
2022/01/26 02:06:30;;;;;;;;;;;;;;;;;;5075985;28;20286;-87
2022/01/26 02:09:02;;;;;;;;;;;;;;;;;;5075804;28;19923;-86
2022/01/26 02:11:28;;;;;;;;;;;;;;;;;;5077228;28;20439;-86
2022/01/26 02:14:12;;;;;;;;;;;;;;;;;;5076026;28;19916;-86
2022/01/26 02:52:16;;;;;;;;;;;;;;;;;;5096183;28;20005;-87
2022/01/26 02:55:05;;;;;;;;;;;;;;;;;;5095655;28;20377;-87
2022/01/26 02:58:03;;;;;;;;;;;;;;;;;;5078494;28;19916;-87
2022/01/26 03:00:41;;;;;;;;;;;;;;;;;;5095357;28;19939;-87
2022/01/26 03:03:15;;;;;;;;;;;;;;;;;;5078648;28;19927;-87
2022/01/26 03:05:50;;;;;;;;;;;;;;;;;;5096245;28;19920;-87
2022/01/26 03:08:16;;;;;;;;;;;;;;;;;;5079545;28;20285;-87
2022/01/26 03:10:51;;;;;;;;;;;;;;;;;;5079305;28;19920;-87
2022/01/26 03:13:22;;;;;;;;;;;;;;;;;;5096296;28;19966;-86
2022/01/26 03:15:53;;;;;;;;;;;;;;;;;;5113856;28;20002;-86
2022/01/26 03:21:31;;;;;;;;;;;;;;;;;;5056245;28;19924;-86
2022/01/26 03:29:42;;;;;;;;;;;;;;;;;;5125389;28;19923;-86
2022/01/26 03:34:54;;;;;;;;;;;;;;;;;;5132053;27;19922;-81
2022/01/26 03:37:23;;;;;;;;;;;;;;;;;;5141317;27;19916;-81
2022/01/26 03:39:50;;;;;;;;;;;;;;;;;;5120536;28;19916;-79
2022/01/26 03:42:15;;;;;;;;;;;;;;;;;;5120680;28;19916;-79
2022/01/26 03:44:41;;;;;;;;;;;;;;;;;;5121480;28;20399;-79
2022/01/26 03:47:07;;;;;;;;;;;;;;;;;;5120372;28;19923;-79
2022/01/26 03:49:34;;;;;;;;;;;;;;;;;;5120250;28;20401;-81
2022/01/26 03:51:59;;;;;;;;;;;;;;;;;;5120976;28;19916;-78
2022/01/26 03:54:24;;;;;;;;;;;;;;;;;;5128808;28;19923;-81
2022/01/26 03:56:50;;;;;;;;;;;;;;;;;;5128084;28;19987;-82
2022/01/26 03:59:15;;;;;;;;;;;;;;;;;;5125519;28;19923;-80
2022/01/26 04:01:41;;;;;;;;;;;;;;;;;;5142251;27;19923;-80
2022/01/26 04:04:06;;;;;;;;;;;;;;;;;;5148581;27;19923;-80
2022/01/26 04:06:33;;;;;;;;;;;;;;;;;;5128569;27;20381;-79
2022/01/26 04:08:58;;;;;;;;;;;;;;;;;;5108935;28;19965;-79
2022/01/26 04:11:36;;;;;;;;;;;;;;;;;;5128247;28;19995;-79
2022/01/26 04:14:05;;;;;;;;;;;;;;;;;;5129230;27;20008;-79
2022/01/26 04:16:30;;;;;;;;;;;;;;;;;;5147697;27;19923;-79
2022/01/26 04:18:57;;;;;;;;;;;;;;;;;;5146329;27;20296;-79
2022/01/26 04:21:44;;;;;;;;;;;;;;;;;;5145750;27;19923;-79
2022/01/26 04:24:18;;;;;;;;;;;;;;;;;;5145713;27;19968;-79
2022/01/26 04:27:00;;;;;;;;;;;;;;;;;;5127319;27;19926;-79
2022/01/26 04:29:31;;;;;;;;;;;;;;;;;;5147095;27;19964;-78
2022/01/26 04:31:57;;;;;;;;;;;;;;;;;;5145071;27;19915;-78
2022/01/26 04:34:23;;;;;;;;;;;;;;;;;;5144384;27;19915;-78
2022/01/26 04:36:56;;;;;;;;;;;;;;;;;;5144899;27;19915;-79
2022/01/26 04:39:28;;;;;;;;;;;;;;;;;;5145293;27;20276;-79
2022/01/26 04:42:02;;;;;;;;;;;;;;;;;;5144488;27;19915;-79
2022/01/26 04:44:34;;;;;;;;;;;;;;;;;;5145299;27;19915;-79
2022/01/26 04:46:59;;;;;;;;;;;;;;;;;;5145037;27;20002;-79
2022/01/26 04:49:24;;;;;;;;;;;;;;;;;;5144461;27;19915;-79
2022/01/26 04:51:49;;;;;;;;;;;;;;;;;;5144267;27;20331;-79
2022/01/26 04:54:15;;;;;;;;;;;;;;;;;;5144005;27;19924;-79
2022/01/26 04:56:40;;;;;;;;;;;;;;;;;;5143583;27;19966;-79
2022/01/26 04:59:06;;;;;;;;;;;;;;;;;;5142635;27;19916;-79
2022/01/26 05:01:31;;;;;;;;;;;;;;;;;;5144418;27;20374;-79
2022/01/26 05:03:57;;;;;;;;;;;;;;;;;;5144378;27;19915;-79
2022/01/26 05:06:22;;;;;;;;;;;;;;;;;;5143773;27;19927;-79
2022/01/26 05:08:47;;;;;;;;;;;;;;;;;;5143598;27;19915;-79
2022/01/26 05:11:18;;;;;;;;;;;;;;;;;;5143977;27;19915;-78
2022/01/26 05:13:44;;;;;;;;;;;;;;;;;;5143171;27;19919;-78
2022/01/26 05:16:10;;;;;;;;;;;;;;;;;;5142915;27;20066;-78
2022/01/26 05:18:35;;;;;;;;;;;;;;;;;;5143209;27;19923;-78
2022/01/26 05:21:03;;;;;;;;;;;;;;;;;;5141544;27;19915;-79
2022/01/26 05:23:29;;;;;;;;;;;;;;;;;;5143091;28;19915;-78
2022/01/26 05:25:54;;;;;;;;;;;;;;;;;;5143322;28;19926;-78
2022/01/26 05:28:19;;;;;;;;;;;;;;;;;;5142843;28;19926;-79
2022/01/26 05:30:45;;;;;;;;;;;;;;;;;;5123515;28;19916;-79
2022/01/26 05:33:10;;;;;;;;;;;;;;;;;;5123737;28;19986;-79
2022/01/26 05:35:35;;;;;;;;;;;;;;;;;;5140062;28;19915;-79
2022/01/26 05:38:01;;;;;;;;;;;;;;;;;;5142514;27;19937;-79
2022/01/26 05:40:26;;;;;;;;;;;;;;;;;;5142488;28;19968;-79
2022/01/26 05:42:51;;;;;;;;;;;;;;;;;;5142335;28;19916;-78
2022/01/26 05:45:27;;;;;;;;;;;;;;;;;;5142430;28;20365;-79
2022/01/26 05:47:52;;;;;;;;;;;;;;;;;;5105544;27;19915;-78
2022/01/26 05:50:19;;;;;;;;;;;;;;;;;;5139495;28;19915;-79
2022/01/26 05:52:45;;;;;;;;;;;;;;;;;;5121845;28;19962;-79
2022/01/26 05:55:10;;;;;;;;;;;;;;;;;;5121351;28;19919;-79
2022/01/26 05:57:35;;;;;;;;;;;;;;;;;;5141625;28;19972;-79
2022/01/26 06:00:01;;;;;;;;;;;;;;;;;;5140475;27;19968;-78
2022/01/26 06:02:26;;;;;;;;;;;;;;;;;;5140368;28;19916;-78
2022/01/26 06:04:51;;;;;;;;;;;;;;;;;;5140236;28;19916;-78
2022/01/26 06:07:17;;;;;;;;;;;;;;;;;;5140994;28;19927;-78
2022/01/26 06:09:42;;;;;;;;;;;;;;;;;;5140284;27;19964;-81
2022/01/26 06:12:08;;;;;;;;;;;;;;;;;;5144971;27;19919;-78
2022/01/26 06:14:33;;;;;;;;;;;;;;;;;;5105114;27;19922;-77
2022/01/26 06:16:58;;;;;;;;;;;;;;;;;;5121894;27;20031;-79
2022/01/26 06:19:23;;;;;;;;;;;;;;;;;;5121863;27;20014;-78
2022/01/26 06:21:49;;;;;;;;;;;;;;;;;;5139990;27;19966;-79
2022/01/26 06:24:14;;;;;;;;;;;;;;;;;;5141315;27;20318;-79
2022/01/26 06:26:41;;;;;;;;;;;;;;;;;;5140766;27;20441;-79
2022/01/26 06:29:07;;;;;;;;;;;;;;;;;;5122471;27;19969;-79
2022/01/26 06:31:34;;;;;;;;;;;;;;;;;;5140076;27;19962;-78
2022/01/26 06:34:02;;;;;;;;;;;;;;;;;;5134026;27;20414;-80
2022/01/26 06:36:27;;;;;;;;;;;;;;;;;;5103219;28;19916;-79
2022/01/26 06:38:52;;;;;;;;;;;;;;;;;;5102371;28;19923;-79
2022/01/26 06:41:23;;;;;;;;;;;;;;;;;;5139984;27;19922;-79
2022/01/26 06:43:54;;;;;;;;;;;;;;;;;;5142773;27;19992;-80
2022/01/26 06:46:39;;;;;;;;;;;;;;;;;;5143786;27;19920;-78
2022/01/26 06:51:48;;;;;;;;;;;;;;;;;;5145264;27;19915;-78
2022/01/26 06:54:14;;;;;;;;;;;;;;;;;;5142234;27;19921;-78
2022/01/26 06:56:39;;;;;;;;;;;;;;;;;;5147133;27;19915;-79
2022/01/26 06:59:05;;;;;;;;;;;;;;;;;;5149138;27;19915;-82
2022/01/26 07:01:30;;;;;;;;;;;;;;;;;;5149292;27;19919;-80
2022/01/26 07:03:55;;;;;;;;;;;;;;;;;;5149561;27;19916;-80
2022/01/26 07:06:20;;;;;;;;;;;;;;;;;;5147272;27;19992;-83
2022/01/26 07:08:46;;;;;;;;;;;;;;;;;;5144053;27;19922;-81
2022/01/26 07:11:11;;;;;;;;;;;;;;;;;;5122492;27;20002;-81
2022/01/26 07:13:39;;;;;;;;;;;;;;;;;;5125085;27;19915;-80
2022/01/26 07:21:32;;;;;;;;;;;;;;;;;;5141201;27;19923;-81
2022/01/26 07:23:58;;;;;;;;;;;;;;;;;;5142333;27;19915;-81
2022/01/26 07:26:27;;;;;;;;;;;;;;;;;;5141913;27;19926;-80
2022/01/26 07:28:53;;;;;;;;;;;;;;;;;;5141894;27;19915;-79
2022/01/26 07:31:18;;;;;;;;;;;;;;;;;;5142370;27;19972;-81
2022/01/26 07:33:44;;;;;;;;;;;;;;;;;;5135951;27;19916;-77
2022/01/26 07:36:09;;;;;;;;;;;;;;;;;;5125023;27;19994;-86
2022/01/26 07:38:35;;;;;;;;;;;;;;;;;;5112213;27;19915;-82
2022/01/26 07:41:01;;;;;;;;;;;;;;;;;;5149914;27;19926;-83
2022/01/26 07:43:26;;;;;;;;;;;;;;;;;;5149518;27;20049;-83
2022/01/26 07:45:51;;;;;;;;;;;;;;;;;;5148529;27;20463;-82
2022/01/26 07:48:16;;;;;;;;;;;;;;;;;;5129896;27;19919;-82
2022/01/26 07:50:42;;;;;;;;;;;;;;;;;;5130415;27;20301;-83
2022/01/26 07:53:14;;;;;;;;;;;;;;;;;;5126354;27;19911;-82
2022/01/26 07:55:39;;;;;;;;;;;;;;;;;;5146513;27;19921;-82
2022/01/26 07:58:05;;;;;;;;;;;;;;;;;;5127751;27;20279;-80
2022/01/26 08:00:30;;;;;;;;;;;;;;;;;;5142807;27;20386;-85
2022/01/26 08:02:56;;;;;;;;;;;;;;;;;;5123864;28;19915;-84
2022/01/26 08:05:22;;;;;;;;;;;;;;;;;;5104208;28;19984;-82
2022/01/26 08:07:47;;;;;;;;;;;;;;;;;;5123603;27;19990;-79
2022/01/26 08:10:12;;;;;;;;;;;;;;;;;;5144763;27;19922;-81
2022/01/26 08:12:38;;;;;;;;;;;;;;;;;;5143240;27;19926;-80
2022/01/26 08:15:04;;;;;;;;;;;;;;;;;;5123245;27;20006;-78
2022/01/26 08:17:29;;;;;;;;;;;;;;;;;;5140602;27;19968;-78
2022/01/26 08:19:56;;;;;;;;;;;;;;;;;;5136334;27;20006;-77
2022/01/26 08:22:22;;;;;;;;;;;;;;;;;;5128719;27;20018;-80
2022/01/26 08:24:49;;;;;;;;;;;;;;;;;;5126699;28;19916;-80
2022/01/26 08:27:16;;;;;;;;;;;;;;;;;;5127569;28;19920;-80
2022/01/26 08:29:46;;;;;;;;;;;;;;;;;;5125309;28;19923;-79
2022/01/26 08:32:11;;;;;;;;;;;;;;;;;;5107811;28;20258;-79
2022/01/26 08:34:37;;;;;;;;;;;;;;;;;;5107078;28;19993;-79
2022/01/26 08:37:03;;;;;;;;;;;;;;;;;;5106327;27;19915;-83
2022/01/26 08:39:28;;;;;;;;;;;;;;;;;;5128959;27;20365;-84
2022/01/26 08:41:53;;;;;;;;;;;;;;;;;;5130449;27;19915;-84
2022/01/26 08:44:22;;;;;;;;;;;;;;;;;;5147044;27;19915;-84
2022/01/26 08:46:47;;;;;;;;;;;;;;;;;;5130906;27;19925;-84
2022/01/26 08:49:13;;;;;;;;;;;;;;;;;;5148777;27;19915;-84
2022/01/26 08:51:38;;;;;;;;;;;;;;;;;;5129105;27;20001;-84
2022/01/26 08:54:04;;;;;;;;;;;;;;;;;;5130127;27;19915;-84
2022/01/26 08:56:29;;;;;;;;;;;;;;;;;;5147445;27;19916;-84
2022/01/26 08:58:54;;;;;;;;;;;;;;;;;;5130138;27;19915;-84
2022/01/26 09:01:20;;;;;;;;;;;;;;;;;;5130607;27;19919;-84
2022/01/26 09:03:45;;;;;;;;;;;;;;;;;;5148410;27;19916;-84
2022/01/26 09:06:11;;;;;;;;;;;;;;;;;;5148362;27;19996;-84
2022/01/26 09:08:41;;;;;;;;;;;;;;;;;;5129774;27;19915;-84
2022/01/26 09:11:08;;;;;;;;;;;;;;;;;;5112599;28;19915;-84
2022/01/26 09:13:34;;;;;;;;;;;;;;;;;;5129526;27;19916;-84
2022/01/26 09:16:01;;;;;;;;;;;;;;;;;;5148652;27;19919;-84
2022/01/26 09:21:05;;;;;;;;;;;;;;;;;;5148275;27;19915;-84
2022/01/26 09:23:30;;;;;;;;;;;;;;;;;;5129584;27;19919;-84
2022/01/26 09:25:56;;;;;;;;;;;;;;;;;;5129895;28;19926;-84
2022/01/26 09:28:22;;;;;;;;;;;;;;;;;;5112067;28;19916;-84
2022/01/26 09:30:48;;;;;;;;;;;;;;;;;;5147231;28;19968;-84
2022/01/26 09:33:13;;;;;;;;;;;;;;;;;;5148004;28;19916;-84
2022/01/26 09:35:38;;;;;;;;;;;;;;;;;;5148270;28;20010;-84
2022/01/26 09:38:04;;;;;;;;;;;;;;;;;;5128989;27;19915;-84
2022/01/26 09:40:29;;;;;;;;;;;;;;;;;;5147771;28;20018;-85
2022/01/26 09:42:55;;;;;;;;;;;;;;;;;;5147267;28;20398;-84
2022/01/26 09:45:20;;;;;;;;;;;;;;;;;;5149610;27;19920;-84
2022/01/26 09:47:46;;;;;;;;;;;;;;;;;;5133449;27;19944;-84
2022/01/26 09:50:11;;;;;;;;;;;;;;;;;;5133993;27;19921;-84
2022/01/26 09:52:44;;;;;;;;;;;;;;;;;;5135544;27;19915;-84
2022/01/26 09:55:09;;;;;;;;;;;;;;;;;;5117289;27;19915;-84
2022/01/26 09:57:36;;;;;;;;;;;;;;;;;;5154781;27;20019;-83
2022/01/26 10:00:03;;;;;;;;;;;;;;;;;;5134960;27;19922;-84
2022/01/26 10:02:39;;;;;;;;;;;;;;;;;;5133395;27;20408;-84
2022/01/26 10:05:10;;;;;;;;;;;;;;;;;;5114176;28;19942;-83
2022/01/26 10:15:41;;;;;;;;;;;;;;;;;;5132946;28;19920;-84
2022/01/26 10:18:08;;;;;;;;;;;;;;;;;;5132470;28;19990;-84
2022/01/26 10:20:48;;;;;;;;;;;;;;;;;;5132881;28;19915;-84
2022/01/26 10:23:17;;;;;;;;;;;;;;;;;;5131707;28;19916;-83
2022/01/26 10:25:43;;;;;;;;;;;;;;;;;;5131993;28;19924;-83
2022/01/26 10:28:11;;;;;;;;;;;;;;;;;;5131423;28;19966;-83
2022/01/26 10:30:36;;;;;;;;;;;;;;;;;;5133163;27;20365;-83
2022/01/26 10:33:08;;;;;;;;;;;;;;;;;;5117535;27;19919;-83
2022/01/26 10:35:34;;;;;;;;;;;;;;;;;;5134761;27;19921;-84
2022/01/26 10:37:59;;;;;;;;;;;;;;;;;;5135027;27;20359;-83
2022/01/26 10:40:26;;;;;;;;;;;;;;;;;;5144815;27;19908;-83
2022/01/26 10:43:14;;;;;;;;;;;;;;;;;;5161996;27;19924;-83
2022/01/26 10:45:55;;;;;;;;;;;;;;;;;;5155360;27;19919;-83
2022/01/26 10:48:41;;;;;;;;;;;;;;;;;;5153829;27;20171;-83
2022/01/26 10:53:48;;;;;;;;;;;;;;;;;;5154224;27;19916;-83
2022/01/26 10:56:14;;;;;;;;;;;;;;;;;;5135576;27;19986;-83
2022/01/26 10:58:40;;;;;;;;;;;;;;;;;;5152673;27;19922;-83
2022/01/26 11:01:06;;;;;;;;;;;;;;;;;;5147256;27;19912;-83
2022/01/26 11:03:33;;;;;;;;;;;;;;;;;;5118849;27;19915;-83
2022/01/26 11:05:59;;;;;;;;;;;;;;;;;;5134546;27;20374;-83
2022/01/26 11:08:25;;;;;;;;;;;;;;;;;;5134582;27;19934;-83
2022/01/26 11:10:50;;;;;;;;;;;;;;;;;;5152379;27;20381;-83
2022/01/26 11:13:28;;;;;;;;;;;;;;;;;;5152942;27;19915;-83
2022/01/26 11:16:10;;;;;;;;;;;;;;;;;;5152382;27;19927;-83
2022/01/26 11:18:45;;;;;;;;;;;;;;;;;;5116763;27;19922;-83
2022/01/26 11:21:14;;;;;;;;;;;;;;;;;;5152611;27;19921;-83
2022/01/26 11:23:40;;;;;;;;;;;;;;;;;;5133060;27;19923;-83
2022/01/26 11:26:05;;;;;;;;;;;;;;;;;;5133135;27;19920;-83
2022/01/26 11:28:31;;;;;;;;;;;;;;;;;;5152543;27;19921;-83
2022/01/26 11:30:59;;;;;;;;;;;;;;;;;;5151986;27;19940;-83
2022/01/26 11:33:27;;;;;;;;;;;;;;;;;;5128438;28;19922;-83
2022/01/26 11:35:53;;;;;;;;;;;;;;;;;;5112724;28;19915;-83
2022/01/26 11:39:14;;;;;;;;;;;;;;;;;;5142143;27;19998;-83
2022/01/26 11:46:58;;;;;;;;;;;;;;;;;;5153926;27;19920;-83
2022/01/26 11:49:25;;;;;;;;;;;;;;;;;;5152291;27;19916;-83
2022/01/26 11:51:57;;;;;;;;;;;;;;;;;;5134745;27;19926;-83
2022/01/26 11:54:27;;;;;;;;;;;;;;;;;;5152600;27;19915;-83
2022/01/26 11:57:08;;;;;;;;;;;;;;;;;;5151279;27;19923;-83
2022/01/26 11:59:37;;;;;;;;;;;;;;;;;;5132002;27;19923;-83
2022/01/26 12:02:09;;;;;;;;;;;;;;;;;;5123438;28;19915;-83
2022/01/26 12:04:37;;;;;;;;;;;;;;;;;;5130006;28;19916;-83
2022/01/26 12:07:10;;;;;;;;;;;;;;;;;;5110518;28;19920;-84
2022/01/26 12:09:35;;;;;;;;;;;;;;;;;;5135525;27;19919;-79
2022/01/26 12:12:00;;;;;;;;;;;;;;;;;;5137951;27;19969;-78
2022/01/26 12:14:26;;;;;;;;;;;;;;;;;;5136972;27;19922;-77
2022/01/26 12:16:54;;;;;;;;;;;;;;;;;;5117355;27;19926;-76
2022/01/26 12:19:49;;;;;;;;;;;;;;;;;;5135751;27;19921;-77
2022/01/26 12:36:22;;;;;;;;;;;;;;;;;;5138043;27;19916;-78
2022/01/26 12:38:55;;;;;;;;;;;;;;;;;;5117888;27;19968;-78
2022/01/26 12:43:53;;;;;;;;;;;;;;;;;;5117292;27;19972;-77
2022/01/26 12:46:20;;;;;;;;;;;;;;;;;;5142718;27;19920;-79
2022/01/26 12:48:51;;;;;;;;;;;;;;;;;;5144249;27;20466;-79
2022/01/26 12:51:16;;;;;;;;;;;;;;;;;;5143324;27;20417;-79
2022/01/26 12:53:50;;;;;;;;;;;;;;;;;;5139921;27;19915;-79
2022/01/26 12:56:15;;;;;;;;;;;;;;;;;;5139752;27;19967;-81
2022/01/26 12:58:41;;;;;;;;;;;;;;;;;;5139537;27;19919;-79
2022/01/26 13:01:06;;;;;;;;;;;;;;;;;;5128134;27;19919;-77
2022/01/26 13:03:36;;;;;;;;;;;;;;;;;;5117858;28;19916;-79
2022/01/26 13:06:07;;;;;;;;;;;;;;;;;;5106108;27;19926;-78
2022/01/26 13:08:39;;;;;;;;;;;;;;;;;;5138159;27;19959;-77
2022/01/26 13:11:04;;;;;;;;;;;;;;;;;;5135407;27;19923;-78
2022/01/26 13:13:32;;;;;;;;;;;;;;;;;;5118899;28;19919;-79
2022/01/26 13:16:10;;;;;;;;;;;;;;;;;;5139598;27;19919;-79
2022/01/26 13:18:58;;;;;;;;;;;;;;;;;;5139576;27;19922;-81
2022/01/26 13:21:52;;;;;;;;;;;;;;;;;;5138577;27;19919;-79
2022/01/26 13:24:30;;;;;;;;;;;;;;;;;;5139738;27;19916;-79
2022/01/26 13:27:11;;;;;;;;;;;;;;;;;;5120998;28;19919;-79
2022/01/26 13:30:27;;;;;;;;;;;;;;;;;;5120955;28;20003;-79
2022/01/26 13:35:28;;;;;;;;;;;;;;;;;;5139305;28;19915;-79
2022/01/26 13:43:41;;;;;;;;;;;;;;;;;;5139162;28;20010;-82
2022/01/26 13:51:24;;;;;;;;;;;;;;;;;;5136795;28;19923;-78
2022/01/26 13:54:25;;;;;;;;;;;;;;;;;;5118431;28;20010;-77
2022/01/26 13:59:23;;;;;;;;;;;;;;;;;;5137015;27;19923;-78
2022/01/26 14:01:50;;;;;;;;;;;;;;;;;;5136962;28;19915;-78
2022/01/26 14:04:16;;;;;;;;;;;;;;;;;;5137220;28;20449;-78
2022/01/26 14:06:42;;;;;;;;;;;;;;;;;;5137855;28;19919;-78
2022/01/26 14:09:08;;;;;;;;;;;;;;;;;;5138632;27;20026;-78
2022/01/26 14:11:33;;;;;;;;;;;;;;;;;;5136832;28;19922;-78
2022/01/26 14:14:00;;;;;;;;;;;;;;;;;;5136839;28;19915;-78
2022/01/26 14:16:28;;;;;;;;;;;;;;;;;;5115113;28;19919;-78
2022/01/26 14:19:08;;;;;;;;;;;;;;;;;;5117116;28;19923;-78
2022/01/26 14:26:40;;;;;;;;;;;;;;;;;;5116341;28;19997;-78
2022/01/26 14:29:15;;;;;;;;;;;;;;;;;;5116707;28;19916;-78
2022/01/26 14:39:36;;;;;;;;;;;;;;;;;;5119488;28;19923;-78
2022/01/26 14:40:07;;;;;;;;;;;;;;;;;;5109539;28;19961;-78
2022/01/26 15:19:12;;;;;;;;;;;;;;;;;;5119298;28;20062;-78
2022/01/26 15:33:17;;;;;;;;;;;;;;;;;;5119710;28;19968;-78
2022/01/26 15:41:25;;;;;;;;;;;;;;;;;;5120201;28;19916;-78
2022/01/26 15:44:18;;;;;;;;;;;;;;;;;;5118306;28;19919;-78
2022/01/26 15:52:05;;;;;;;;;;;;;;;;;;5102474;28;19934;-78
2022/01/26 16:08:13;;;;;;;;;;;;;;;;;;5121497;28;19984;-78
2022/01/26 16:16:59;;;;;;;;;;;;;;;;;;5067268;28;19928;-78
2022/01/26 16:19:47;;;;;;;;;;;;;;;;;;5104949;28;20368;-78
2022/01/26 16:36:05;;;;;;;;;;;;;;;;;;5098874;28;19989;-78
2022/01/26 17:03:30;;;;;;;;;;;;;;;;;;5122335;28;19919;-78
2022/01/26 18:15:35;;;;;;;;;;;;;;;;;;5109066;28;19977;-83
2022/01/26 18:26:08;;;;;;;;;;;;;;;;;;5123517;28;19924;-81
2022/01/26 18:49:34;;;;;;;;;;;;;;;;;;5104539;28;19955;-78
2022/01/26 18:52:00;;;;;;;;;;;;;;;;;;5104239;28;19916;-76
2022/01/26 18:54:28;;;;;;;;;;;;;;;;;;5100995;27;20377;-77
2022/01/26 18:56:55;;;;;;;;;;;;;;;;;;5144384;27;19968;-79
2022/01/26 18:59:23;;;;;;;;;;;;;;;;;;5145268;27;19915;-78
2022/01/26 19:01:51;;;;;;;;;;;;;;;;;;5136447;27;19915;-76
2022/01/26 19:04:20;;;;;;;;;;;;;;;;;;5110930;27;19920;-77
2022/01/26 19:06:51;;;;;;;;;;;;;;;;;;5123486;27;19927;-76
2022/01/26 19:09:21;;;;;;;;;;;;;;;;;;5084561;28;19919;-75
2022/01/26 19:11:46;;;;;;;;;;;;;;;;;;5119128;27;19922;-76
2022/01/26 19:14:15;;;;;;;;;;;;;;;;;;5124188;27;19916;-78
2022/01/26 19:16:47;;;;;;;;;;;;;;;;;;5141190;27;19959;-77
2022/01/26 19:26:45;;;;;;;;;;;;;;;;;;5103571;27;19920;-78
2022/01/26 19:29:24;;;;;;;;;;;;;;;;;;5120467;27;19967;-77
2022/01/26 19:43:57;;;;;;;;;;;;;;;;;;5138428;27;19915;-77
2022/01/26 19:50:56;;;;;;;;;;;;;;;;;;5120274;27;20387;-77
2022/01/26 19:53:21;;;;;;;;;;;;;;;;;;5138661;27;20017;-77
2022/01/26 19:55:46;;;;;;;;;;;;;;;;;;5120519;27;19916;-77
2022/01/26 19:58:12;;;;;;;;;;;;;;;;;;5142135;27;19915;-76
2022/01/26 20:00:43;;;;;;;;;;;;;;;;;;5138464;27;20357;-75
2022/01/26 20:03:08;;;;;;;;;;;;;;;;;;5138047;27;19916;-75
2022/01/26 20:05:35;;;;;;;;;;;;;;;;;;5138051;27;19967;-75
2022/01/26 20:08:08;;;;;;;;;;;;;;;;;;5137993;27;19919;-76
2022/01/26 20:10:35;;;;;;;;;;;;;;;;;;5138430;27;19916;-75
2022/01/26 20:13:06;;;;;;;;;;;;;;;;;;5137984;27;20635;-75
2022/01/26 20:15:32;;;;;;;;;;;;;;;;;;5138013;27;19919;-75
2022/01/26 20:17:57;;;;;;;;;;;;;;;;;;5119389;27;20002;-76
2022/01/26 20:20:24;;;;;;;;;;;;;;;;;;5102619;27;20290;-76
2022/01/26 20:22:50;;;;;;;;;;;;;;;;;;5137195;27;19915;-75
2022/01/26 20:25:16;;;;;;;;;;;;;;;;;;5136579;27;20391;-75
2022/01/26 20:27:42;;;;;;;;;;;;;;;;;;5137798;27;19919;-76
2022/01/26 20:30:16;;;;;;;;;;;;;;;;;;5137731;27;19922;-75
2022/01/26 20:32:42;;;;;;;;;;;;;;;;;;5137424;27;19916;-76
2022/01/26 20:35:08;;;;;;;;;;;;;;;;;;5137852;27;19959;-76
2022/01/26 20:37:34;;;;;;;;;;;;;;;;;;5119867;27;19923;-76
2022/01/26 20:39:59;;;;;;;;;;;;;;;;;;5137620;27;19915;-76
2022/01/26 20:42:25;;;;;;;;;;;;;;;;;;5119280;27;19912;-76
2022/01/26 20:44:50;;;;;;;;;;;;;;;;;;5137691;27;20423;-76
2022/01/26 20:47:15;;;;;;;;;;;;;;;;;;5119384;27;19972;-76
2022/01/26 20:49:41;;;;;;;;;;;;;;;;;;5138102;27;20355;-76
2022/01/26 20:52:06;;;;;;;;;;;;;;;;;;5137738;27;19920;-76
2022/01/26 20:54:31;;;;;;;;;;;;;;;;;;5119461;27;19915;-76
2022/01/26 20:56:57;;;;;;;;;;;;;;;;;;5137765;27;19915;-76
2022/01/26 20:59:22;;;;;;;;;;;;;;;;;;5137404;27;19916;-76
2022/01/26 21:01:48;;;;;;;;;;;;;;;;;;5136091;27;19923;-76
2022/01/26 21:04:13;;;;;;;;;;;;;;;;;;5136246;27;19916;-76
2022/01/26 21:06:39;;;;;;;;;;;;;;;;;;5134687;27;19920;-77
2022/01/26 21:09:04;;;;;;;;;;;;;;;;;;5134926;27;20387;-76
2022/01/26 21:11:30;;;;;;;;;;;;;;;;;;5116560;27;19916;-76
2022/01/26 21:13:55;;;;;;;;;;;;;;;;;;5134678;27;20014;-76
2022/01/26 21:16:23;;;;;;;;;;;;;;;;;;5134658;27;19931;-76
2022/01/26 21:18:48;;;;;;;;;;;;;;;;;;5116328;27;19915;-76
2022/01/26 21:21:14;;;;;;;;;;;;;;;;;;5134871;27;20277;-76
2022/01/26 21:23:39;;;;;;;;;;;;;;;;;;5116257;27;19929;-76
2022/01/26 21:26:04;;;;;;;;;;;;;;;;;;5134607;27;19920;-76
2022/01/26 21:28:30;;;;;;;;;;;;;;;;;;5116045;28;19915;-76
2022/01/26 21:30:56;;;;;;;;;;;;;;;;;;5134620;28;19911;-76
2022/01/26 21:33:22;;;;;;;;;;;;;;;;;;5099461;28;19921;-76
2022/01/26 21:35:47;;;;;;;;;;;;;;;;;;5098649;28;19922;-76
2022/01/26 21:38:14;;;;;;;;;;;;;;;;;;5134496;27;19916;-76
2022/01/26 21:40:39;;;;;;;;;;;;;;;;;;5134970;27;19915;-76
2022/01/26 21:43:05;;;;;;;;;;;;;;;;;;5120467;27;19915;-76
2022/01/26 21:45:30;;;;;;;;;;;;;;;;;;5138703;27;19922;-76
2022/01/26 21:47:55;;;;;;;;;;;;;;;;;;5138788;27;19919;-76
2022/01/26 21:50:21;;;;;;;;;;;;;;;;;;5138873;27;19919;-76
2022/01/26 21:52:46;;;;;;;;;;;;;;;;;;5138861;27;19916;-76
2022/01/26 21:55:12;;;;;;;;;;;;;;;;;;5119575;27;20384;-76
2022/01/26 21:57:41;;;;;;;;;;;;;;;;;;5138403;27;20387;-76
2022/01/26 22:00:07;;;;;;;;;;;;;;;;;;5120064;27;19924;-76
2022/01/26 22:02:34;;;;;;;;;;;;;;;;;;5120038;27;19922;-76
2022/01/26 22:04:59;;;;;;;;;;;;;;;;;;5138184;27;20311;-76
2022/01/26 22:07:24;;;;;;;;;;;;;;;;;;5137709;27;20005;-76
2022/01/26 22:09:52;;;;;;;;;;;;;;;;;;5137906;27;20397;-76
2022/01/26 22:12:19;;;;;;;;;;;;;;;;;;5138304;27;19916;-76
2022/01/26 22:14:44;;;;;;;;;;;;;;;;;;5138271;27;19915;-77
2022/01/26 22:17:10;;;;;;;;;;;;;;;;;;5138161;27;19915;-76
2022/01/26 22:19:35;;;;;;;;;;;;;;;;;;5138410;27;19916;-76
2022/01/26 22:22:00;;;;;;;;;;;;;;;;;;5137631;27;20007;-76
2022/01/26 22:24:26;;;;;;;;;;;;;;;;;;5138252;27;19919;-76
2022/01/26 22:26:51;;;;;;;;;;;;;;;;;;5137715;27;19919;-76
2022/01/26 22:29:23;;;;;;;;;;;;;;;;;;5137991;27;20329;-76
2022/01/26 22:31:49;;;;;;;;;;;;;;;;;;5137937;27;19923;-76
2022/01/26 22:34:14;;;;;;;;;;;;;;;;;;5138146;27;20256;-76
2022/01/26 22:36:39;;;;;;;;;;;;;;;;;;5119265;27;19922;-76
2022/01/26 22:39:05;;;;;;;;;;;;;;;;;;5118843;27;19919;-76
2022/01/26 22:41:30;;;;;;;;;;;;;;;;;;5137548;27;19915;-76
2022/01/26 22:43:56;;;;;;;;;;;;;;;;;;5137819;27;19915;-76
2022/01/26 22:46:21;;;;;;;;;;;;;;;;;;5119298;27;19919;-76
2022/01/26 22:48:46;;;;;;;;;;;;;;;;;;5137821;27;19955;-76
2022/01/26 22:51:12;;;;;;;;;;;;;;;;;;5137376;27;19915;-76
2022/01/26 22:53:37;;;;;;;;;;;;;;;;;;5137227;27;19923;-76
2022/01/26 22:56:03;;;;;;;;;;;;;;;;;;5137320;27;20292;-76
2022/01/26 22:58:31;;;;;;;;;;;;;;;;;;5119096;27;19998;-76
2022/01/26 23:01:14;;;;;;;;;;;;;;;;;;5136355;27;20017;-76
2022/01/26 23:03:40;;;;;;;;;;;;;;;;;;5118849;27;19951;-76
2022/01/26 23:06:12;;;;;;;;;;;;;;;;;;5137309;27;19974;-76
2022/01/26 23:08:42;;;;;;;;;;;;;;;;;;5136872;27;20272;-76
2022/01/26 23:11:08;;;;;;;;;;;;;;;;;;5137424;27;20277;-76
2022/01/26 23:13:34;;;;;;;;;;;;;;;;;;5136965;27;19915;-76
2022/01/26 23:15:59;;;;;;;;;;;;;;;;;;5136853;27;19928;-76
2022/01/26 23:18:24;;;;;;;;;;;;;;;;;;5136676;27;20013;-76
2022/01/26 23:20:50;;;;;;;;;;;;;;;;;;5136960;27;19915;-76
2022/01/26 23:23:15;;;;;;;;;;;;;;;;;;5136983;27;20014;-76
2022/01/26 23:28:21;;;;;;;;;;;;;;;;;;5116390;28;19919;-76
2022/01/26 23:39:27;;;;;;;;;;;;;;;;;;5136444;27;19919;-76